sensor_id;sensor_type;location;lat;lon;timestamp;pressure;altitude;pressure_sealevel;temperature;humidity
13080;BME280;6606;49.154;9.280;2022-12-20T00:01:49;100251.25;;;3.02;100.00
13080;BME280;6606;49.154;9.280;2022-12-20T00:04:31;100259.16;;;2.96;100.00
13080;BME280;6606;49.154;9.280;2022-12-20T00:07:12;100251.19;;;3.08;100.00
13080;BME280;6606;49.154;9.280;2022-12-20T00:09:54;100242.44;;;3.13;100.00
13080;BME280;6606;49.154;9.280;2022-12-20T00:12:37;100254.63;;;3.14;100.00
13080;BME280;6606;49.154;9.280;2022-12-20T00:15:19;100250.22;;;3.20;100.00
13080;BME280;6606;49.154;9.280;2022-12-20T00:18:01;100239.75;;;3.19;100.00
13080;BME280;6606;49.154;9.280;2022-12-20T00:20:43;100234.53;;;3.14;100.00
13080;BME280;6606;49.154;9.280;2022-12-20T00:23:25;100227.41;;;3.28;100.00
13080;BME280;6606;49.154;9.280;2022-12-20T00:26:08;100226.50;;;3.31;100.00
13080;BME280;6606;49.154;9.280;2022-12-20T00:28:52;100218.69;;;3.26;100.00
13080;BME280;6606;49.154;9.280;2022-12-20T00:31:34;100215.19;;;3.27;100.00
13080;BME280;6606;49.154;9.280;2022-12-20T00:34:16;100223.06;;;3.26;100.00
13080;BME280;6606;49.154;9.280;2022-12-20T00:36:57;100216.84;;;3.35;100.00
13080;BME280;6606;49.154;9.280;2022-12-20T00:39:39;100215.88;;;3.43;100.00
13080;BME280;6606;49.154;9.280;2022-12-20T00:42:21;100195.00;;;3.37;100.00
13080;BME280;6606;49.154;9.280;2022-12-20T00:45:05;100198.41;;;3.42;100.00
13080;BME280;6606;49.154;9.280;2022-12-20T00:47:47;100191.44;;;3.41;100.00
13080;BME280;6606;49.154;9.280;2022-12-20T00:50:29;100191.75;;;3.17;100.00
13080;BME280;6606;49.154;9.280;2022-12-20T00:53:11;100204.78;;;3.21;100.00
13080;BME280;6606;49.154;9.280;2022-12-20T00:55:53;100203.97;;;3.15;100.00
13080;BME280;6606;49.154;9.280;2022-12-20T00:58:37;100202.03;;;3.30;100.00
13080;BME280;6606;49.154;9.280;2022-12-20T01:01:22;100219.38;;;3.42;100.00
13080;BME280;6606;49.154;9.280;2022-12-20T01:04:05;100202.72;;;3.46;100.00
13080;BME280;6606;49.154;9.280;2022-12-20T01:06:48;100203.47;;;3.58;100.00
13080;BME280;6606;49.154;9.280;2022-12-20T01:09:30;100221.84;;;3.55;100.00
13080;BME280;6606;49.154;9.280;2022-12-20T01:12:12;100212.25;;;3.53;100.00
13080;BME280;6606;49.154;9.280;2022-12-20T01:14:53;100208.72;;;3.58;100.00
13080;BME280;6606;49.154;9.280;2022-12-20T01:17:37;100208.63;;;3.65;100.00
13080;BME280;6606;49.154;9.280;2022-12-20T01:20:18;100202.56;;;3.59;100.00
13080;BME280;6606;49.154;9.280;2022-12-20T01:23:00;100205.28;;;3.52;100.00
13080;BME280;6606;49.154;9.280;2022-12-20T01:25:42;100224.59;;;3.45;100.00
13080;BME280;6606;49.154;9.280;2022-12-20T01:28:24;100222.09;;;3.36;100.00
13080;BME280;6606;49.154;9.280;2022-12-20T01:31:06;100222.88;;;3.43;100.00
13080;BME280;6606;49.154;9.280;2022-12-20T01:33:50;100213.97;;;3.55;100.00
13080;BME280;6606;49.154;9.280;2022-12-20T01:36:34;100205.25;;;3.56;100.00
13080;BME280;6606;49.154;9.280;2022-12-20T01:39:17;100196.56;;;3.50;100.00
13080;BME280;6606;49.154;9.280;2022-12-20T01:41:59;100182.63;;;3.48;100.00
13080;BME280;6606;49.154;9.280;2022-12-20T01:44:54;100184.47;;;3.42;100.00
13080;BME280;6606;49.154;9.280;2022-12-20T01:47:37;100182.63;;;3.48;100.00
13080;BME280;6606;49.154;9.280;2022-12-20T01:50:22;100191.31;;;3.50;100.00
13080;BME280;6606;49.154;9.280;2022-12-20T01:53:04;100203.53;;;3.51;100.00
13080;BME280;6606;49.154;9.280;2022-12-20T01:55:46;100200.06;;;3.51;100.00
13080;BME280;6606;49.154;9.280;2022-12-20T01:58:29;100206.28;;;3.42;100.00
13080;BME280;6606;49.154;9.280;2022-12-20T02:01:11;100200.94;;;3.48;100.00
13080;BME280;6606;49.154;9.280;2022-12-20T02:03:54;100189.53;;;3.54;100.00
13080;BME280;6606;49.154;9.280;2022-12-20T02:06:38;100197.28;;;3.63;100.00
13080;BME280;6606;49.154;9.280;2022-12-20T02:09:20;100192.94;;;3.61;100.00
13080;BME280;6606;49.154;9.280;2022-12-20T02:12:07;100180.75;;;3.57;100.00
13080;BME280;6606;49.154;9.280;2022-12-20T02:15:06;100187.75;;;3.55;100.00
13080;BME280;6606;49.154;9.280;2022-12-20T02:18:02;100179.88;;;3.58;100.00
13080;BME280;6606;49.154;9.280;2022-12-20T02:21:18;100183.56;;;3.43;100.00
13080;BME280;6606;49.154;9.280;2022-12-20T02:24:26;100171.22;;;3.52;100.00
13080;BME280;6606;49.154;9.280;2022-12-20T02:27:45;100178.97;;;3.59;100.00
13080;BME280;6606;49.154;9.280;2022-12-20T02:30:34;100177.22;;;3.59;100.00
13080;BME280;6606;49.154;9.280;2022-12-20T02:33:20;100160.63;;;3.60;100.00
13080;BME280;6606;49.154;9.280;2022-12-20T02:36:06;100153.63;;;3.61;100.00
13080;BME280;6606;49.154;9.280;2022-12-20T02:38:48;100164.13;;;3.59;100.00
13080;BME280;6606;49.154;9.280;2022-12-20T02:41:33;100149.50;;;3.41;100.00
13080;BME280;6606;49.154;9.280;2022-12-20T02:44:18;100142.44;;;3.49;100.00
13080;BME280;6606;49.154;9.280;2022-12-20T02:47:24;100139.78;;;3.51;100.00
13080;BME280;6606;49.154;9.280;2022-12-20T02:50:08;100138.09;;;3.47;100.00
13080;BME280;6606;49.154;9.280;2022-12-20T02:52:51;100125.16;;;3.33;100.00
13080;BME280;6606;49.154;9.280;2022-12-20T02:55:40;100132.06;;;3.40;100.00
13080;BME280;6606;49.154;9.280;2022-12-20T02:58:27;100136.31;;;3.49;100.00
13080;BME280;6606;49.154;9.280;2022-12-20T03:01:15;100132.91;;;3.42;100.00
13080;BME280;6606;49.154;9.280;2022-12-20T03:04:00;100127.63;;;3.44;100.00
13080;BME280;6606;49.154;9.280;2022-12-20T03:06:55;100119.94;;;3.33;100.00
13080;BME280;6606;49.154;9.280;2022-12-20T03:09:39;100125.41;;;3.18;100.00
13080;BME280;6606;49.154;9.280;2022-12-20T03:12:22;100123.47;;;3.30;100.00
13080;BME280;6606;49.154;9.280;2022-12-20T03:15:05;100129.50;;;3.37;100.00
13080;BME280;6606;49.154;9.280;2022-12-20T03:17:47;100123.41;;;3.35;100.00
13080;BME280;6606;49.154;9.280;2022-12-20T03:20:30;100120.91;;;3.26;100.00
13080;BME280;6606;49.154;9.280;2022-12-20T03:23:12;100110.41;;;3.27;100.00
13080;BME280;6606;49.154;9.280;2022-12-20T03:25:54;100085.25;;;3.16;100.00
13080;BME280;6606;49.154;9.280;2022-12-20T03:28:57;100088.69;;;3.21;100.00
13080;BME280;6606;49.154;9.280;2022-12-20T03:31:41;100110.50;;;3.21;100.00
13080;BME280;6606;49.154;9.280;2022-12-20T03:34:23;100114.56;;;3.42;100.00
13080;BME280;6606;49.154;9.280;2022-12-20T03:37:06;100119.88;;;3.39;100.00
13080;BME280;6606;49.154;9.280;2022-12-20T03:39:48;100126.72;;;3.49;100.00
13080;BME280;6606;49.154;9.280;2022-12-20T03:42:30;100116.25;;;3.49;100.00
13080;BME280;6606;49.154;9.280;2022-12-20T03:45:12;100111.00;;;3.46;100.00
13080;BME280;6606;49.154;9.280;2022-12-20T03:47:55;100107.06;;;3.16;100.00
13080;BME280;6606;49.154;9.280;2022-12-20T03:50:40;100117.34;;;3.30;100.00
13080;BME280;6606;49.154;9.280;2022-12-20T03:53:24;100109.50;;;3.30;100.00
13080;BME280;6606;49.154;9.280;2022-12-20T03:56:06;100091.16;;;3.30;100.00
13080;BME280;6606;49.154;9.280;2022-12-20T03:58:49;100096.41;;;3.32;100.00
13080;BME280;6606;49.154;9.280;2022-12-20T04:01:31;100085.81;;;3.39;100.00
13080;BME280;6606;49.154;9.280;2022-12-20T04:04:16;100086.56;;;3.47;100.00
13080;BME280;6606;49.154;9.280;2022-12-20T04:06:58;100071.72;;;3.46;100.00
13080;BME280;6606;49.154;9.280;2022-12-20T04:09:41;100069.72;;;3.64;100.00
13080;BME280;6606;49.154;9.280;2022-12-20T04:12:26;100075.75;;;3.69;100.00
13080;BME280;6606;49.154;9.280;2022-12-20T04:15:09;100075.69;;;3.72;100.00
13080;BME280;6606;49.154;9.280;2022-12-20T04:17:53;100076.56;;;3.72;100.00
13080;BME280;6606;49.154;9.280;2022-12-20T04:20:35;100080.81;;;3.78;100.00
13080;BME280;6606;49.154;9.280;2022-12-20T04:23:29;100068.72;;;3.71;100.00
13080;BME280;6606;49.154;9.280;2022-12-20T04:26:13;100067.66;;;3.83;100.00
13080;BME280;6606;49.154;9.280;2022-12-20T04:28:56;100061.00;;;3.62;100.00
13080;BME280;6606;49.154;9.280;2022-12-20T04:31:38;100064.53;;;3.59;100.00
13080;BME280;6606;49.154;9.280;2022-12-20T04:34:20;100068.78;;;3.68;100.00
13080;BME280;6606;49.154;9.280;2022-12-20T04:37:02;100059.84;;;3.81;100.00
13080;BME280;6606;49.154;9.280;2022-12-20T04:39:53;100049.47;;;3.72;100.00
13080;BME280;6606;49.154;9.280;2022-12-20T04:42:40;100049.50;;;3.70;100.00
13080;BME280;6606;49.154;9.280;2022-12-20T04:45:24;100045.09;;;3.72;100.00
13080;BME280;6606;49.154;9.280;2022-12-20T04:48:07;100053.91;;;3.68;100.00
13080;BME280;6606;49.154;9.280;2022-12-20T04:50:52;100044.19;;;3.75;100.00
13080;BME280;6606;49.154;9.280;2022-12-20T04:53:34;100036.13;;;3.87;100.00
13080;BME280;6606;49.154;9.280;2022-12-20T04:56:38;100041.31;;;3.90;100.00
13080;BME280;6606;49.154;9.280;2022-12-20T04:59:27;100030.69;;;3.98;100.00
13080;BME280;6606;49.154;9.280;2022-12-20T05:02:09;100032.53;;;3.91;100.00
13080;BME280;6606;49.154;9.280;2022-12-20T05:05:00;100031.75;;;3.86;100.00
13080;BME280;6606;49.154;9.280;2022-12-20T05:07:45;100020.41;;;3.86;100.00
13080;BME280;6606;49.154;9.280;2022-12-20T05:10:27;100025.81;;;3.77;100.00
13080;BME280;6606;49.154;9.280;2022-12-20T05:13:12;100021.44;;;3.79;100.00
13080;BME280;6606;49.154;9.280;2022-12-20T05:15:58;100022.34;;;3.76;100.00
13080;BME280;6606;49.154;9.280;2022-12-20T05:18:43;100024.84;;;3.82;100.00
13080;BME280;6606;49.154;9.280;2022-12-20T05:21:25;100012.47;;;3.89;100.00
13080;BME280;6606;49.154;9.280;2022-12-20T05:24:25;100012.59;;;3.84;100.00
13080;BME280;6606;49.154;9.280;2022-12-20T05:27:36;100013.41;;;3.86;100.00
13080;BME280;6606;49.154;9.280;2022-12-20T05:30:18;100005.38;;;3.95;100.00
13080;BME280;6606;49.154;9.280;2022-12-20T05:33:09;100011.44;;;3.99;100.00
13080;BME280;6606;49.154;9.280;2022-12-20T05:35:52;100004.53;;;3.93;100.00
13080;BME280;6606;49.154;9.280;2022-12-20T05:38:34;100013.19;;;4.00;100.00
13080;BME280;6606;49.154;9.280;2022-12-20T05:41:19;100002.63;;;4.02;100.00
13080;BME280;6606;49.154;9.280;2022-12-20T05:44:03;100012.53;;;3.87;100.00
13080;BME280;6606;49.154;9.280;2022-12-20T05:46:49;100015.94;;;3.92;100.00
13080;BME280;6606;49.154;9.280;2022-12-20T05:49:38;100015.81;;;3.99;100.00
13080;BME280;6606;49.154;9.280;2022-12-20T05:52:23;100007.78;;;4.08;100.00
13080;BME280;6606;49.154;9.280;2022-12-20T05:55:06;100008.53;;;4.14;100.00
13080;BME280;6606;49.154;9.280;2022-12-20T05:57:49;100006.72;;;4.18;100.00
13080;BME280;6606;49.154;9.280;2022-12-20T06:00:38;100010.25;;;4.17;100.00
13080;BME280;6606;49.154;9.280;2022-12-20T06:03:20;100001.53;;;4.15;100.00
13080;BME280;6606;49.154;9.280;2022-12-20T06:06:04;100005.19;;;4.08;100.00
13080;BME280;6606;49.154;9.280;2022-12-20T06:08:47;100004.66;;;3.87;100.00
13080;BME280;6606;49.154;9.280;2022-12-20T06:11:35;99998.44;;;3.94;100.00
13080;BME280;6606;49.154;9.280;2022-12-20T06:14:23;99998.50;;;3.88;100.00
13080;BME280;6606;49.154;9.280;2022-12-20T06:17:07;99994.13;;;3.89;100.00
13080;BME280;6606;49.154;9.280;2022-12-20T06:19:48;100003.63;;;3.96;100.00
13080;BME280;6606;49.154;9.280;2022-12-20T06:22:32;100008.72;;;4.04;100.00
13080;BME280;6606;49.154;9.280;2022-12-20T06:25:14;100005.38;;;3.95;100.00
13080;BME280;6606;49.154;9.280;2022-12-20T06:27:57;100009.78;;;3.93;100.00
13080;BME280;6606;49.154;9.280;2022-12-20T06:30:39;100004.53;;;3.93;100.00
13080;BME280;6606;49.154;9.280;2022-12-20T06:33:26;99999.34;;;3.92;100.00
13080;BME280;6606;49.154;9.280;2022-12-20T06:36:08;99989.66;;;3.95;100.00
13080;BME280;6606;49.154;9.280;2022-12-20T06:38:52;99991.56;;;3.87;100.00
13080;BME280;6606;49.154;9.280;2022-12-20T06:41:34;99999.28;;;3.93;100.00
13080;BME280;6606;49.154;9.280;2022-12-20T06:44:15;99996.84;;;3.84;100.00
13080;BME280;6606;49.154;9.280;2022-12-20T06:46:58;100000.34;;;3.85;100.00
13080;BME280;6606;49.154;9.280;2022-12-20T06:49:40;100005.81;;;3.71;100.00
13080;BME280;6606;49.154;9.280;2022-12-20T06:52:30;100014.72;;;3.61;100.00
13080;BME280;6606;49.154;9.280;2022-12-20T06:55:13;100002.56;;;3.57;100.00
13080;BME280;6606;49.154;9.280;2022-12-20T06:57:55;100012.09;;;3.61;100.00
13080;BME280;6606;49.154;9.280;2022-12-20T07:00:38;100015.59;;;3.60;100.00
13080;BME280;6606;49.154;9.280;2022-12-20T07:03:20;100006.88;;;3.59;100.00
13080;BME280;6606;49.154;9.280;2022-12-20T07:06:02;100008.81;;;3.49;100.00
13080;BME280;6606;49.154;9.280;2022-12-20T07:08:44;100000.16;;;3.43;100.00
13080;BME280;6606;49.154;9.280;2022-12-20T07:11:27;100001.03;;;3.43;100.00
13080;BME280;6606;49.154;9.280;2022-12-20T07:14:09;99999.19;;;3.48;100.00
13080;BME280;6606;49.154;9.280;2022-12-20T07:16:51;99994.00;;;3.47;100.00
13080;BME280;6606;49.154;9.280;2022-12-20T07:19:33;100000.97;;;3.46;100.00
13080;BME280;6606;49.154;9.280;2022-12-20T07:22:15;99992.41;;;3.35;100.00
13080;BME280;6606;49.154;9.280;2022-12-20T07:24:57;99991.38;;;3.45;100.00
13080;BME280;6606;49.154;9.280;2022-12-20T07:27:40;99990.47;;;3.49;100.00
13080;BME280;6606;49.154;9.280;2022-12-20T07:30:22;99992.19;;;3.50;100.00
13080;BME280;6606;49.154;9.280;2022-12-20T07:33:04;99991.31;;;3.48;100.00
13080;BME280;6606;49.154;9.280;2022-12-20T07:35:46;99992.06;;;3.57;100.00
13080;BME280;6606;49.154;9.280;2022-12-20T07:38:27;99983.47;;;3.48;100.00
13080;BME280;6606;49.154;9.280;2022-12-20T07:41:11;99988.56;;;3.58;100.00
13080;BME280;6606;49.154;9.280;2022-12-20T07:43:55;99990.34;;;3.56;100.00
13080;BME280;6606;49.154;9.280;2022-12-20T07:46:37;99991.06;;;3.65;100.00
13080;BME280;6606;49.154;9.280;2022-12-20T07:49:19;100000.63;;;3.68;100.00
13080;BME280;6606;49.154;9.280;2022-12-20T07:52:03;99991.69;;;3.78;100.00
13080;BME280;6606;49.154;9.280;2022-12-20T07:54:48;99989.97;;;3.77;100.00
13080;BME280;6606;49.154;9.280;2022-12-20T07:57:36;99991.66;;;3.81;100.00
13080;BME280;6606;49.154;9.280;2022-12-20T08:00:22;99995.22;;;3.77;100.00
13080;BME280;6606;49.154;9.280;2022-12-20T08:03:06;99990.63;;;3.90;100.00
13080;BME280;6606;49.154;9.280;2022-12-20T08:05:51;99983.50;;;3.98;100.00
13080;BME280;6606;49.154;9.280;2022-12-20T08:08:36;99984.06;;;4.14;100.00
13080;BME280;6606;49.154;9.280;2022-12-20T08:11:19;99991.66;;;4.28;100.00
13080;BME280;6606;49.154;9.280;2022-12-20T08:14:03;99994.38;;;4.23;100.00
13080;BME280;6606;49.154;9.280;2022-12-20T08:16:47;99992.50;;;4.31;100.00
13080;BME280;6606;49.154;9.280;2022-12-20T08:19:30;99990.59;;;4.39;100.00
13080;BME280;6606;49.154;9.280;2022-12-20T08:22:11;99987.72;;;4.50;100.00
13080;BME280;6606;49.154;9.280;2022-12-20T08:24:53;99974.47;;;4.58;100.00
13080;BME280;6606;49.154;9.280;2022-12-20T08:27:35;99967.22;;;4.68;100.00
13080;BME280;6606;49.154;9.280;2022-12-20T08:30:17;99971.59;;;4.69;100.00
13080;BME280;6606;49.154;9.280;2022-12-20T08:33:00;99970.78;;;4.65;100.00
13080;BME280;6606;49.154;9.280;2022-12-20T08:35:42;99965.81;;;4.53;100.00
13080;BME280;6606;49.154;9.280;2022-12-20T08:38:25;99976.03;;;4.65;100.00
13080;BME280;6606;49.154;9.280;2022-12-20T08:41:09;99974.09;;;4.73;100.00
13080;BME280;6606;49.154;9.280;2022-12-20T08:43:51;99968.81;;;4.76;100.00
13080;BME280;6606;49.154;9.280;2022-12-20T08:46:33;99963.41;;;4.82;100.00
13080;BME280;6606;49.154;9.280;2022-12-20T08:49:18;99959.81;;;4.87;100.00
13080;BME280;6606;49.154;9.280;2022-12-20T08:52:09;99953.44;;;4.98;100.00
13080;BME280;6606;49.154;9.280;2022-12-20T08:54:51;99954.03;;;5.10;100.00
13080;BME280;6606;49.154;9.280;2022-12-20T08:57:33;99940.53;;;5.25;100.00
13080;BME280;6606;49.154;9.280;2022-12-20T09:00:15;99942.63;;;5.48;100.00
13080;BME280;6606;49.154;9.280;2022-12-20T09:02:57;99935.88;;;5.72;100.00
13080;BME280;6606;49.154;9.280;2022-12-20T09:05:44;99946.50;;;5.67;100.00
13080;BME280;6606;49.154;9.280;2022-12-20T09:08:26;99937.28;;;5.84;100.00
13080;BME280;6606;49.154;9.280;2022-12-20T09:11:10;99928.75;;;6.08;100.00
13080;BME280;6606;49.154;9.280;2022-12-20T09:13:55;99922.41;;;6.17;100.00
13080;BME280;6606;49.154;9.280;2022-12-20T09:16:38;99916.59;;;6.35;100.00
13080;BME280;6606;49.154;9.280;2022-12-20T09:19:20;99919.97;;;6.41;100.00
13080;BME280;6606;49.154;9.280;2022-12-20T09:22:03;99934.00;;;6.41;100.00
13080;BME280;6606;49.154;9.280;2022-12-20T09:24:45;99943.69;;;6.39;100.00
13080;BME280;6606;49.154;9.280;2022-12-20T09:27:27;99938.41;;;6.41;100.00
13080;BME280;6606;49.154;9.280;2022-12-20T09:30:09;99931.25;;;6.44;100.00
13080;BME280;6606;49.154;9.280;2022-12-20T09:32:51;99933.34;;;6.63;100.00
13080;BME280;6606;49.154;9.280;2022-12-20T09:35:33;99942.47;;;6.51;100.00
13080;BME280;6606;49.154;9.280;2022-12-20T09:38:16;99939.59;;;6.58;100.00
13080;BME280;6606;49.154;9.280;2022-12-20T09:41:00;99945.88;;;6.54;100.00
13080;BME280;6606;49.154;9.280;2022-12-20T09:43:44;99929.41;;;6.77;100.00
13080;BME280;6606;49.154;9.280;2022-12-20T09:46:26;99924.69;;;6.87;100.00
13080;BME280;6606;49.154;9.280;2022-12-20T09:49:10;99923.75;;;6.90;100.00
13080;BME280;6606;49.154;9.280;2022-12-20T09:55:13;99927.84;;;6.98;100.00
13080;BME280;6606;49.154;9.280;2022-12-20T09:58:07;99918.63;;;7.12;100.00
13080;BME280;6606;49.154;9.280;2022-12-20T10:00:54;99921.81;;;7.23;100.00
13080;BME280;6606;49.154;9.280;2022-12-20T10:03:37;99916.66;;;7.20;100.00
13080;BME280;6606;49.154;9.280;2022-12-20T10:06:26;99915.75;;;7.19;100.00
13080;BME280;6606;49.154;9.280;2022-12-20T10:09:18;99913.69;;;7.29;100.00
13080;BME280;6606;49.154;9.280;2022-12-20T10:12:16;99912.22;;;7.20;100.00
13080;BME280;6606;49.154;9.280;2022-12-20T10:15:16;99906.78;;;7.25;100.00
13080;BME280;6606;49.154;9.280;2022-12-20T10:18:13;99918.03;;;7.03;100.00
13080;BME280;6606;49.154;9.280;2022-12-20T10:21:04;99912.41;;;7.14;100.00
13080;BME280;6606;49.154;9.280;2022-12-20T10:23:57;99907.09;;;7.16;100.00
13080;BME280;6606;49.154;9.280;2022-12-20T10:26:41;99891.66;;;7.03;100.00
13080;BME280;6606;49.154;9.280;2022-12-20T10:29:25;99895.88;;;7.09;100.00
13080;BME280;6606;49.154;9.280;2022-12-20T10:32:11;99901.22;;;7.08;100.00
13080;BME280;6606;49.154;9.280;2022-12-20T10:34:58;99892.97;;;7.18;100.00
13080;BME280;6606;49.154;9.280;2022-12-20T10:37:56;99878.69;;;7.25;100.00
13080;BME280;6606;49.154;9.280;2022-12-20T10:40:41;99874.25;;;7.26;100.00
13080;BME280;6606;49.154;9.280;2022-12-20T10:43:23;99886.72;;;7.21;100.00
13080;BME280;6606;49.154;9.280;2022-12-20T10:46:07;99867.22;;;7.26;100.00
13080;BME280;6606;49.154;9.280;2022-12-20T10:48:50;99858.22;;;7.32;100.00
13080;BME280;6606;49.154;9.280;2022-12-20T10:51:32;99847.16;;;7.47;100.00
13080;BME280;6606;49.154;9.280;2022-12-20T10:54:21;99846.06;;;7.53;100.00
13080;BME280;6606;49.154;9.280;2022-12-20T10:57:14;99853.59;;;7.64;100.00
13080;BME280;6606;49.154;9.280;2022-12-20T10:59:59;99839.28;;;7.71;100.00
13080;BME280;6606;49.154;9.280;2022-12-20T11:03:01;99838.47;;;7.69;100.00
13080;BME280;6606;49.154;9.280;2022-12-20T11:05:55;99843.75;;;7.69;100.00
13080;BME280;6606;49.154;9.280;2022-12-20T11:08:38;99846.41;;;7.69;100.00
13080;BME280;6606;49.154;9.280;2022-12-20T11:11:22;99839.34;;;7.69;100.00
13080;BME280;6606;49.154;9.280;2022-12-20T11:14:13;99845.13;;;7.81;100.00
13080;BME280;6606;49.154;9.280;2022-12-20T11:18:27;99843.06;;;7.89;100.00
13080;BME280;6606;49.154;9.280;2022-12-20T11:20:51;99837.66;;;7.67;100.00
13080;BME280;6606;49.154;9.280;2022-12-20T11:23:41;99826.56;;;7.82;100.00
13080;BME280;6606;49.154;9.280;2022-12-20T11:26:34;99823.59;;;7.68;100.00
13080;BME280;6606;49.154;9.280;2022-12-20T11:29:52;99822.94;;;7.61;100.00
13080;BME280;6606;49.154;9.280;2022-12-20T11:33:13;99805.94;;;7.70;100.00
13080;BME280;6606;49.154;9.280;2022-12-20T11:36:02;99799.56;;;7.76;100.00
13080;BME280;6606;49.154;9.280;2022-12-20T11:38:48;99790.16;;;7.92;100.00
13080;BME280;6606;49.154;9.280;2022-12-20T11:41:39;99782.94;;;7.97;100.00
13080;BME280;6606;49.154;9.280;2022-12-20T11:44:28;99793.19;;;8.05;100.00
13080;BME280;6606;49.154;9.280;2022-12-20T11:47:26;99794.56;;;7.91;100.00
13080;BME280;6606;49.154;9.280;2022-12-20T11:50:25;99783.81;;;7.96;100.00
13080;BME280;6606;49.154;9.280;2022-12-20T11:53:19;99781.59;;;7.85;100.00
13080;BME280;6606;49.154;9.280;2022-12-20T11:56:07;99775.00;;;7.97;100.00
13080;BME280;6606;49.154;9.280;2022-12-20T11:58:54;99765.25;;;7.99;100.00
13080;BME280;6606;49.154;9.280;2022-12-20T12:01:39;99739.34;;;8.09;100.00
13080;BME280;6606;49.154;9.280;2022-12-20T12:04:25;99734.84;;;8.12;100.00
13080;BME280;6606;49.154;9.280;2022-12-20T12:07:12;99734.19;;;8.06;100.00
13080;BME280;6606;49.154;9.280;2022-12-20T12:09:59;99731.56;;;8.06;100.00
13080;BME280;6606;49.154;9.280;2022-12-20T12:12:43;99749.31;;;8.02;100.00
13080;BME280;6606;49.154;9.280;2022-12-20T12:15:28;99760.72;;;8.03;100.00
13080;BME280;6606;49.154;9.280;2022-12-20T12:18:17;99771.28;;;7.79;100.00
13080;BME280;6606;49.154;9.280;2022-12-20T12:21:04;99759.97;;;7.99;100.00
13080;BME280;6606;49.154;9.280;2022-12-20T12:23:56;99765.88;;;8.06;100.00
13080;BME280;6606;49.154;9.280;2022-12-20T12:26:41;99756.94;;;8.10;100.00
13080;BME280;6606;49.154;9.280;2022-12-20T12:29:23;99773.63;;;8.10;100.00
13080;BME280;6606;49.154;9.280;2022-12-20T12:32:08;99764.78;;;8.11;100.00
13080;BME280;6606;49.154;9.280;2022-12-20T12:35:02;99748.94;;;8.33;100.00
13080;BME280;6606;49.154;9.280;2022-12-20T12:37:54;99739.97;;;8.37;100.00
13080;BME280;6606;49.154;9.280;2022-12-20T12:41:00;99736.66;;;8.32;100.00
13080;BME280;6606;49.154;9.280;2022-12-20T12:43:48;99725.66;;;8.45;100.00
13080;BME280;6606;49.154;9.280;2022-12-20T12:46:33;99728.84;;;8.53;100.00
13080;BME280;6606;49.154;9.280;2022-12-20T12:49:17;99720.09;;;8.51;100.00
13080;BME280;6606;49.154;9.280;2022-12-20T12:52:03;99724.78;;;8.44;100.00
13080;BME280;6606;49.154;9.280;2022-12-20T12:54:46;99721.22;;;8.45;100.00
13080;BME280;6606;49.154;9.280;2022-12-20T12:57:54;99727.81;;;8.33;100.00
13080;BME280;6606;49.154;9.280;2022-12-20T13:00:52;99741.44;;;8.01;100.00
13080;BME280;6606;49.154;9.280;2022-12-20T13:03:37;99726.31;;;8.04;100.00
13080;BME280;6606;49.154;9.280;2022-12-20T13:06:42;99699.44;;;8.17;100.00
13080;BME280;6606;49.154;9.280;2022-12-20T13:09:37;99685.47;;;8.36;100.00
13080;BME280;6606;49.154;9.280;2022-12-20T13:12:52;99689.34;;;8.70;100.00
13080;BME280;6606;49.154;9.280;2022-12-20T13:15:51;99681.41;;;8.70;100.00
13080;BME280;6606;49.154;9.280;2022-12-20T13:19:10;99663.44;;;8.78;100.00
13080;BME280;6606;49.154;9.280;2022-12-20T13:21:55;99669.00;;;8.93;100.00
13080;BME280;6606;49.154;9.280;2022-12-20T13:24:46;99667.31;;;8.92;100.00
13080;BME280;6606;49.154;9.280;2022-12-20T13:27:34;99664.34;;;8.79;100.00
13080;BME280;6606;49.154;9.280;2022-12-20T13:30:26;99658.03;;;8.61;100.00
13080;BME280;6606;49.154;9.280;2022-12-20T13:33:21;99659.88;;;8.59;100.00
13080;BME280;6606;49.154;9.280;2022-12-20T13:36:34;99671.63;;;8.52;100.00
13080;BME280;6606;49.154;9.280;2022-12-20T13:39:31;99679.81;;;8.46;100.00
13080;BME280;6606;49.154;9.280;2022-12-20T13:42:25;99681.41;;;8.50;100.00
13080;BME280;6606;49.154;9.280;2022-12-20T13:45:12;99682.84;;;8.57;100.00
13080;BME280;6606;49.154;9.280;2022-12-20T13:47:57;99679.19;;;8.61;100.00
13080;BME280;6606;49.154;9.280;2022-12-20T13:50:46;99688.69;;;8.65;100.00
13080;BME280;6606;49.154;9.280;2022-12-20T13:53:30;99684.47;;;8.61;100.00
13080;BME280;6606;49.154;9.280;2022-12-20T13:56:31;99669.19;;;8.47;100.00
13080;BME280;6606;49.154;9.280;2022-12-20T13:59:17;99678.09;;;8.45;100.00
13080;BME280;6606;49.154;9.280;2022-12-20T14:02:09;99675.75;;;8.37;100.00
13080;BME280;6606;49.154;9.280;2022-12-20T14:04:57;99678.69;;;8.29;100.00
13080;BME280;6606;49.154;9.280;2022-12-20T14:07:40;99677.09;;;8.25;100.00
13080;BME280;6606;49.154;9.280;2022-12-20T14:10:26;99668.88;;;8.11;100.00
13080;BME280;6606;49.154;9.280;2022-12-20T14:13:18;99661.78;;;8.13;100.00
13080;BME280;6606;49.154;9.280;2022-12-20T14:16:06;99656.78;;;8.05;100.00
13080;BME280;6606;49.154;9.280;2022-12-20T14:18:49;99658.59;;;8.05;100.00
13080;BME280;6606;49.154;9.280;2022-12-20T14:21:34;99648.13;;;8.02;100.00
13080;BME280;6606;49.154;9.280;2022-12-20T14:24:20;99640.59;;;7.92;100.00
13080;BME280;6606;49.154;9.280;2022-12-20T14:27:02;99633.31;;;7.99;100.00
13080;BME280;6606;49.154;9.280;2022-12-20T14:29:44;99641.75;;;8.07;100.00
13080;BME280;6606;49.154;9.280;2022-12-20T14:32:36;99641.31;;;7.96;100.00
13080;BME280;6606;49.154;9.280;2022-12-20T14:35:18;99644.34;;;7.87;100.00
13080;BME280;6606;49.154;9.280;2022-12-20T14:38:00;99650.47;;;7.87;100.00
13080;BME280;6606;49.154;9.280;2022-12-20T14:40:44;99652.28;;;7.85;100.00
13080;BME280;6606;49.154;9.280;2022-12-20T14:43:28;99658.56;;;7.83;100.00
13080;BME280;6606;49.154;9.280;2022-12-20T14:46:16;99652.28;;;7.85;100.00
13080;BME280;6606;49.154;9.280;2022-12-20T14:49:15;99643.22;;;7.92;100.00
13080;BME280;6606;49.154;9.280;2022-12-20T14:52:10;99635.31;;;7.92;100.00